sensor_id;sensor_type;location;lat;lon;timestamp;P1;durP1;ratioP1;P2;durP2;ratioP2
75499;SDS011;64076;51.466;7.260;2023-11-19T00:02:11;2.00;;;1.20;;
75499;SDS011;64076;51.466;7.260;2023-11-19T00:04:37;1.90;;;1.20;;
75499;SDS011;64076;51.466;7.260;2023-11-19T00:07:04;1.58;;;1.15;;
75499;SDS011;64076;51.466;7.260;2023-11-19T00:09:31;1.70;;;1.00;;
75499;SDS011;64076;51.466;7.260;2023-11-19T00:11:57;2.00;;;1.30;;
75499;SDS011;64076;51.466;7.260;2023-11-19T00:14:25;1.90;;;1.17;;
75499;SDS011;64076;51.466;7.260;2023-11-19T00:16:51;1.88;;;1.30;;
75499;SDS011;64076;51.466;7.260;2023-11-19T00:19:16;1.60;;;1.00;;
75499;SDS011;64076;51.466;7.260;2023-11-19T00:21:42;1.92;;;1.20;;
75499;SDS011;64076;51.466;7.260;2023-11-19T00:24:08;2.00;;;1.20;;
75499;SDS011;64076;51.466;7.260;2023-11-19T00:26:33;1.90;;;1.02;;
75499;SDS011;64076;51.466;7.260;2023-11-19T00:28:59;1.77;;;1.20;;
75499;SDS011;64076;51.466;7.260;2023-11-19T00:31:25;2.88;;;1.20;;
75499;SDS011;64076;51.466;7.260;2023-11-19T00:33:53;1.73;;;1.20;;
75499;SDS011;64076;51.466;7.260;2023-11-19T00:36:19;1.90;;;1.20;;
75499;SDS011;64076;51.466;7.260;2023-11-19T00:38:45;1.83;;;1.20;;
75499;SDS011;64076;51.466;7.260;2023-11-19T00:41:11;2.23;;;1.10;;
75499;SDS011;64076;51.466;7.260;2023-11-19T00:43:36;2.60;;;1.20;;
75499;SDS011;64076;51.466;7.260;2023-11-19T00:46:02;2.07;;;1.20;;
75499;SDS011;64076;51.466;7.260;2023-11-19T00:48:28;2.00;;;1.30;;
75499;SDS011;64076;51.466;7.260;2023-11-19T00:50:53;1.70;;;1.10;;
75499;SDS011;64076;51.466;7.260;2023-11-19T00:53:19;2.57;;;1.30;;
75499;SDS011;64076;51.466;7.260;2023-11-19T00:55:44;1.80;;;1.20;;
75499;SDS011;64076;51.466;7.260;2023-11-19T00:58:10;2.37;;;1.50;;
75499;SDS011;64076;51.466;7.260;2023-11-19T01:00:36;1.70;;;1.30;;
75499;SDS011;64076;51.466;7.260;2023-11-19T01:03:01;1.85;;;1.40;;
75499;SDS011;64076;51.466;7.260;2023-11-19T01:05:27;2.20;;;1.50;;
75499;SDS011;64076;51.466;7.260;2023-11-19T01:07:53;1.92;;;1.40;;
75499;SDS011;64076;51.466;7.260;2023-11-19T01:10:19;2.05;;;1.45;;
75499;SDS011;64076;51.466;7.260;2023-11-19T01:12:45;3.33;;;1.57;;
75499;SDS011;64076;51.466;7.260;2023-11-19T01:15:11;2.00;;;1.27;;
75499;SDS011;64076;51.466;7.260;2023-11-19T01:17:38;3.17;;;1.55;;
75499;SDS011;64076;51.466;7.260;2023-11-19T01:20:04;1.93;;;1.30;;
75499;SDS011;64076;51.466;7.260;2023-11-19T01:22:31;1.92;;;1.40;;
75499;SDS011;64076;51.466;7.260;2023-11-19T01:24:57;2.40;;;1.70;;
75499;SDS011;64076;51.466;7.260;2023-11-19T01:27:23;2.13;;;1.50;;
75499;SDS011;64076;51.466;7.260;2023-11-19T01:29:49;2.07;;;1.20;;
75499;SDS011;64076;51.466;7.260;2023-11-19T01:32:15;2.20;;;1.50;;
75499;SDS011;64076;51.466;7.260;2023-11-19T01:34:40;2.63;;;1.60;;
75499;SDS011;64076;51.466;7.260;2023-11-19T01:37:06;1.75;;;1.40;;
75499;SDS011;64076;51.466;7.260;2023-11-19T01:39:34;2.05;;;1.60;;
75499;SDS011;64076;51.466;7.260;2023-11-19T01:41:59;1.93;;;1.40;;
75499;SDS011;64076;51.466;7.260;2023-11-19T01:44:26;2.25;;;1.40;;
75499;SDS011;64076;51.466;7.260;2023-11-19T01:46:51;1.83;;;1.23;;
75499;SDS011;64076;51.466;7.260;2023-11-19T01:49:17;2.03;;;1.40;;
75499;SDS011;64076;51.466;7.260;2023-11-19T01:51:44;2.38;;;1.50;;
75499;SDS011;64076;51.466;7.260;2023-11-19T01:54:12;2.57;;;1.70;;
75499;SDS011;64076;51.466;7.260;2023-11-19T01:56:38;2.22;;;1.60;;
75499;SDS011;64076;51.466;7.260;2023-11-19T01:59:08;3.33;;;1.70;;
75499;SDS011;64076;51.466;7.260;2023-11-19T02:01:36;2.42;;;1.50;;
75499;SDS011;64076;51.466;7.260;2023-11-19T02:04:04;2.47;;;1.60;;
75499;SDS011;64076;51.466;7.260;2023-11-19T02:06:31;1.92;;;1.40;;
75499;SDS011;64076;51.466;7.260;2023-11-19T02:08:59;2.00;;;1.50;;
75499;SDS011;64076;51.466;7.260;2023-11-19T02:11:25;2.20;;;1.60;;
75499;SDS011;64076;51.466;7.260;2023-11-19T02:13:54;2.00;;;1.63;;
75499;SDS011;64076;51.466;7.260;2023-11-19T02:16:20;2.00;;;1.33;;
75499;SDS011;64076;51.466;7.260;2023-11-19T02:18:46;2.00;;;1.35;;
75499;SDS011;64076;51.466;7.260;2023-11-19T02:21:13;2.25;;;1.40;;
75499;SDS011;64076;51.466;7.260;2023-11-19T02:23:40;2.15;;;1.63;;
75499;SDS011;64076;51.466;7.260;2023-11-19T02:26:21;2.30;;;1.50;;
75499;SDS011;64076;51.466;7.260;2023-11-19T02:28:53;2.10;;;1.52;;
75499;SDS011;64076;51.466;7.260;2023-11-19T02:31:19;2.05;;;1.50;;
75499;SDS011;64076;51.466;7.260;2023-11-19T02:33:45;2.20;;;1.40;;
75499;SDS011;64076;51.466;7.260;2023-11-19T02:36:10;2.72;;;1.60;;
75499;SDS011;64076;51.466;7.260;2023-11-19T02:38:36;2.47;;;1.60;;
75499;SDS011;64076;51.466;7.260;2023-11-19T02:41:05;2.22;;;1.50;;
75499;SDS011;64076;51.466;7.260;2023-11-19T02:43:34;2.10;;;1.60;;
75499;SDS011;64076;51.466;7.260;2023-11-19T02:46:03;2.23;;;1.60;;
75499;SDS011;64076;51.466;7.260;2023-11-19T02:48:35;2.42;;;1.60;;
75499;SDS011;64076;51.466;7.260;2023-11-19T02:51:04;3.08;;;1.70;;
75499;SDS011;64076;51.466;7.260;2023-11-19T02:53:31;2.42;;;1.70;;
75499;SDS011;64076;51.466;7.260;2023-11-19T02:55:57;2.10;;;1.60;;
75499;SDS011;64076;51.466;7.260;2023-11-19T02:58:37;2.13;;;1.50;;
75499;SDS011;64076;51.466;7.260;2023-11-19T03:01:04;2.33;;;1.80;;
75499;SDS011;64076;51.466;7.260;2023-11-19T03:03:38;2.07;;;1.40;;
75499;SDS011;64076;51.466;7.260;2023-11-19T03:06:05;2.60;;;1.70;;
75499;SDS011;64076;51.466;7.260;2023-11-19T03:08:31;2.55;;;1.70;;
75499;SDS011;64076;51.466;7.260;2023-11-19T03:11:00;2.20;;;1.50;;
75499;SDS011;64076;51.466;7.260;2023-11-19T03:13:26;2.33;;;1.60;;
75499;SDS011;64076;51.466;7.260;2023-11-19T03:15:52;2.30;;;1.50;;
75499;SDS011;64076;51.466;7.260;2023-11-19T03:18:18;2.50;;;1.50;;
75499;SDS011;64076;51.466;7.260;2023-11-19T03:20:45;3.03;;;1.67;;
75499;SDS011;64076;51.466;7.260;2023-11-19T03:23:11;2.92;;;1.80;;
75499;SDS011;64076;51.466;7.260;2023-11-19T03:25:37;4.60;;;1.70;;
75499;SDS011;64076;51.466;7.260;2023-11-19T03:28:03;2.10;;;1.60;;
75499;SDS011;64076;51.466;7.260;2023-11-19T03:30:29;2.75;;;1.73;;
75499;SDS011;64076;51.466;7.260;2023-11-19T03:32:56;3.00;;;1.70;;
75499;SDS011;64076;51.466;7.260;2023-11-19T03:35:22;2.97;;;1.70;;
75499;SDS011;64076;51.466;7.260;2023-11-19T03:37:48;2.08;;;1.55;;
75499;SDS011;64076;51.466;7.260;2023-11-19T03:40:14;2.20;;;1.65;;
75499;SDS011;64076;51.466;7.260;2023-11-19T03:42:40;2.67;;;1.57;;
75499;SDS011;64076;51.466;7.260;2023-11-19T03:45:08;2.92;;;1.55;;
75499;SDS011;64076;51.466;7.260;2023-11-19T03:47:34;2.70;;;1.77;;
75499;SDS011;64076;51.466;7.260;2023-11-19T03:50:00;2.42;;;1.77;;
75499;SDS011;64076;51.466;7.260;2023-11-19T03:52:26;2.40;;;1.60;;
75499;SDS011;64076;51.466;7.260;2023-11-19T03:54:54;2.38;;;1.60;;
75499;SDS011;64076;51.466;7.260;2023-11-19T03:57:21;2.60;;;1.70;;
75499;SDS011;64076;51.466;7.260;2023-11-19T03:59:47;2.60;;;1.90;;
75499;SDS011;64076;51.466;7.260;2023-11-19T04:02:13;2.67;;;1.50;;
75499;SDS011;64076;51.466;7.260;2023-11-19T04:04:38;2.15;;;1.50;;
75499;SDS011;64076;51.466;7.260;2023-11-19T04:07:04;2.20;;;1.53;;
75499;SDS011;64076;51.466;7.260;2023-11-19T04:09:30;2.50;;;1.70;;
75499;SDS011;64076;51.466;7.260;2023-11-19T04:12:00;2.40;;;1.60;;
75499;SDS011;64076;51.466;7.260;2023-11-19T04:14:26;3.30;;;1.92;;
75499;SDS011;64076;51.466;7.260;2023-11-19T04:16:52;2.90;;;1.50;;
75499;SDS011;64076;51.466;7.260;2023-11-19T04:19:18;2.45;;;1.38;;
75499;SDS011;64076;51.466;7.260;2023-11-19T04:21:44;3.07;;;1.90;;
75499;SDS011;64076;51.466;7.260;2023-11-19T04:24:10;3.33;;;1.60;;
75499;SDS011;64076;51.466;7.260;2023-11-19T04:26:45;2.58;;;1.40;;
75499;SDS011;64076;51.466;7.260;2023-11-19T04:29:12;2.75;;;1.60;;
75499;SDS011;64076;51.466;7.260;2023-11-19T04:31:38;2.13;;;1.60;;
75499;SDS011;64076;51.466;7.260;2023-11-19T04:34:04;2.90;;;1.57;;
75499;SDS011;64076;51.466;7.260;2023-11-19T04:36:31;3.30;;;1.80;;
75499;SDS011;64076;51.466;7.260;2023-11-19T04:38:58;2.83;;;1.80;;
75499;SDS011;64076;51.466;7.260;2023-11-19T04:41:24;2.30;;;1.55;;
75499;SDS011;64076;51.466;7.260;2023-11-19T04:43:50;2.87;;;1.47;;
75499;SDS011;64076;51.466;7.260;2023-11-19T04:46:15;3.55;;;1.60;;
75499;SDS011;64076;51.466;7.260;2023-11-19T04:48:41;2.40;;;1.50;;
75499;SDS011;64076;51.466;7.260;2023-11-19T04:51:07;2.80;;;1.50;;
75499;SDS011;64076;51.466;7.260;2023-11-19T04:53:34;4.10;;;1.93;;
75499;SDS011;64076;51.466;7.260;2023-11-19T04:56:00;3.17;;;1.48;;
75499;SDS011;64076;51.466;7.260;2023-11-19T04:58:25;3.00;;;1.70;;
75499;SDS011;64076;51.466;7.260;2023-11-19T05:00:53;3.00;;;1.55;;
75499;SDS011;64076;51.466;7.260;2023-11-19T05:03:19;2.83;;;1.77;;
75499;SDS011;64076;51.466;7.260;2023-11-19T05:05:44;2.65;;;1.58;;
75499;SDS011;64076;51.466;7.260;2023-11-19T05:08:10;2.83;;;1.57;;
75499;SDS011;64076;51.466;7.260;2023-11-19T05:10:36;3.47;;;1.52;;
75499;SDS011;64076;51.466;7.260;2023-11-19T05:13:02;2.30;;;1.50;;
75499;SDS011;64076;51.466;7.260;2023-11-19T05:15:27;2.97;;;1.60;;
75499;SDS011;64076;51.466;7.260;2023-11-19T05:17:53;3.27;;;1.60;;
75499;SDS011;64076;51.466;7.260;2023-11-19T05:20:18;2.27;;;1.70;;
75499;SDS011;64076;51.466;7.260;2023-11-19T05:22:44;3.17;;;1.30;;
75499;SDS011;64076;51.466;7.260;2023-11-19T05:25:10;3.10;;;1.50;;
75499;SDS011;64076;51.466;7.260;2023-11-19T05:27:36;3.13;;;1.37;;
75499;SDS011;64076;51.466;7.260;2023-11-19T05:30:03;4.20;;;1.60;;
75499;SDS011;64076;51.466;7.260;2023-11-19T05:32:32;3.67;;;1.45;;
75499;SDS011;64076;51.466;7.260;2023-11-19T05:34:58;3.40;;;1.70;;
75499;SDS011;64076;51.466;7.260;2023-11-19T05:37:23;4.53;;;1.70;;
75499;SDS011;64076;51.466;7.260;2023-11-19T05:39:50;3.92;;;1.80;;
75499;SDS011;64076;51.466;7.260;2023-11-19T05:42:15;3.63;;;1.77;;
75499;SDS011;64076;51.466;7.260;2023-11-19T05:44:41;3.00;;;1.55;;
75499;SDS011;64076;51.466;7.260;2023-11-19T05:47:06;4.83;;;1.73;;
75499;SDS011;64076;51.466;7.260;2023-11-19T05:49:32;3.10;;;1.60;;
75499;SDS011;64076;51.466;7.260;2023-11-19T05:51:58;3.80;;;2.20;;
75499;SDS011;64076;51.466;7.260;2023-11-19T05:54:24;5.37;;;2.13;;
75499;SDS011;64076;51.466;7.260;2023-11-19T05:56:50;4.00;;;1.67;;
75499;SDS011;64076;51.466;7.260;2023-11-19T05:59:18;3.63;;;1.73;;
75499;SDS011;64076;51.466;7.260;2023-11-19T06:01:44;4.25;;;1.60;;
75499;SDS011;64076;51.466;7.260;2023-11-19T06:04:10;4.20;;;1.70;;
75499;SDS011;64076;51.466;7.260;2023-11-19T06:06:36;4.45;;;2.33;;
75499;SDS011;64076;51.466;7.260;2023-11-19T06:09:02;3.63;;;2.03;;
75499;SDS011;64076;51.466;7.260;2023-11-19T06:11:28;3.67;;;2.03;;
75499;SDS011;64076;51.466;7.260;2023-11-19T06:13:54;4.68;;;1.85;;
75499;SDS011;64076;51.466;7.260;2023-11-19T06:16:20;4.07;;;1.50;;
75499;SDS011;64076;51.466;7.260;2023-11-19T06:18:45;4.70;;;1.90;;
75499;SDS011;64076;51.466;7.260;2023-11-19T06:21:11;4.00;;;1.85;;
75499;SDS011;64076;51.466;7.260;2023-11-19T06:23:37;3.38;;;2.00;;
75499;SDS011;64076;51.466;7.260;2023-11-19T06:26:03;4.73;;;2.10;;
75499;SDS011;64076;51.466;7.260;2023-11-19T06:28:30;5.18;;;2.05;;
75499;SDS011;64076;51.466;7.260;2023-11-19T06:30:55;3.53;;;1.87;;
75499;SDS011;64076;51.466;7.260;2023-11-19T06:33:22;5.22;;;1.67;;
75499;SDS011;64076;51.466;7.260;2023-11-19T06:35:52;4.03;;;2.00;;
75499;SDS011;64076;51.466;7.260;2023-11-19T06:38:19;3.83;;;1.83;;
75499;SDS011;64076;51.466;7.260;2023-11-19T06:40:45;4.80;;;2.20;;
75499;SDS011;64076;51.466;7.260;2023-11-19T06:43:10;5.13;;;2.00;;
75499;SDS011;64076;51.466;7.260;2023-11-19T06:45:36;3.70;;;1.90;;
75499;SDS011;64076;51.466;7.260;2023-11-19T06:48:02;4.60;;;2.15;;
75499;SDS011;64076;51.466;7.260;2023-11-19T06:50:31;5.23;;;1.80;;
75499;SDS011;64076;51.466;7.260;2023-11-19T06:52:56;6.00;;;2.33;;
75499;SDS011;64076;51.466;7.260;2023-11-19T06:55:22;4.22;;;1.70;;
75499;SDS011;64076;51.466;7.260;2023-11-19T06:57:48;4.73;;;1.63;;
75499;SDS011;64076;51.466;7.260;2023-11-19T07:00:13;4.73;;;1.87;;
75499;SDS011;64076;51.466;7.260;2023-11-19T07:02:39;4.95;;;1.83;;
75499;SDS011;64076;51.466;7.260;2023-11-19T07:05:05;4.67;;;1.70;;
75499;SDS011;64076;51.466;7.260;2023-11-19T07:07:31;4.63;;;1.93;;
75499;SDS011;64076;51.466;7.260;2023-11-19T07:10:00;4.18;;;2.08;;
75499;SDS011;64076;51.466;7.260;2023-11-19T07:12:27;3.55;;;2.13;;
75499;SDS011;64076;51.466;7.260;2023-11-19T07:14:52;3.57;;;1.77;;
75499;SDS011;64076;51.466;7.260;2023-11-19T07:17:20;5.30;;;2.10;;
75499;SDS011;64076;51.466;7.260;2023-11-19T07:19:46;7.07;;;2.15;;
75499;SDS011;64076;51.466;7.260;2023-11-19T07:22:14;5.15;;;1.95;;
75499;SDS011;64076;51.466;7.260;2023-11-19T07:24:40;5.07;;;2.10;;
75499;SDS011;64076;51.466;7.260;2023-11-19T07:27:06;5.05;;;1.90;;
75499;SDS011;64076;51.466;7.260;2023-11-19T07:29:33;4.90;;;1.77;;
75499;SDS011;64076;51.466;7.260;2023-11-19T07:31:59;5.43;;;1.80;;
75499;SDS011;64076;51.466;7.260;2023-11-19T07:34:27;4.25;;;2.10;;
75499;SDS011;64076;51.466;7.260;2023-11-19T07:36:52;3.88;;;2.10;;
75499;SDS011;64076;51.466;7.260;2023-11-19T07:39:18;3.67;;;1.80;;
75499;SDS011;64076;51.466;7.260;2023-11-19T07:41:45;5.45;;;1.75;;
75499;SDS011;64076;51.466;7.260;2023-11-19T07:44:11;6.07;;;2.07;;
75499;SDS011;64076;51.466;7.260;2023-11-19T07:46:36;4.78;;;1.88;;
75499;SDS011;64076;51.466;7.260;2023-11-19T07:49:02;5.63;;;2.20;;
75499;SDS011;64076;51.466;7.260;2023-11-19T07:51:28;4.75;;;2.03;;
75499;SDS011;64076;51.466;7.260;2023-11-19T07:53:53;5.20;;;1.90;;
75499;SDS011;64076;51.466;7.260;2023-11-19T07:56:19;3.67;;;1.57;;
75499;SDS011;64076;51.466;7.260;2023-11-19T07:58:44;4.18;;;1.70;;
75499;SDS011;64076;51.466;7.260;2023-11-19T08:01:10;3.33;;;1.80;;
75499;SDS011;64076;51.466;7.260;2023-11-19T08:03:35;6.27;;;2.07;;
75499;SDS011;64076;51.466;7.260;2023-11-19T08:06:01;4.47;;;1.90;;
75499;SDS011;64076;51.466;7.260;2023-11-19T08:08:28;5.13;;;1.90;;
75499;SDS011;64076;51.466;7.260;2023-11-19T08:10:55;5.28;;;1.90;;
75499;SDS011;64076;51.466;7.260;2023-11-19T08:13:21;6.30;;;2.05;;
75499;SDS011;64076;51.466;7.260;2023-11-19T08:15:48;5.47;;;1.77;;
75499;SDS011;64076;51.466;7.260;2023-11-19T08:18:14;5.33;;;1.77;;
75499;SDS011;64076;51.466;7.260;2023-11-19T08:20:39;4.28;;;1.95;;
75499;SDS011;64076;51.466;7.260;2023-11-19T08:23:06;6.37;;;1.97;;
75499;SDS011;64076;51.466;7.260;2023-11-19T08:25:32;5.00;;;1.80;;
75499;SDS011;64076;51.466;7.260;2023-11-19T08:27:58;7.82;;;2.22;;
75499;SDS011;64076;51.466;7.260;2023-11-19T08:30:25;6.30;;;2.13;;
75499;SDS011;64076;51.466;7.260;2023-11-19T08:32:50;5.33;;;1.93;;
75499;SDS011;64076;51.466;7.260;2023-11-19T08:35:16;6.77;;;1.90;;
75499;SDS011;64076;51.466;7.260;2023-11-19T08:37:41;5.70;;;2.22;;
75499;SDS011;64076;51.466;7.260;2023-11-19T08:40:07;6.10;;;2.20;;
75499;SDS011;64076;51.466;7.260;2023-11-19T08:42:33;4.82;;;2.22;;
75499;SDS011;64076;51.466;7.260;2023-11-19T08:44:58;4.57;;;1.97;;
75499;SDS011;64076;51.466;7.260;2023-11-19T08:47:24;6.70;;;2.30;;
75499;SDS011;64076;51.466;7.260;2023-11-19T08:49:53;6.20;;;2.10;;
75499;SDS011;64076;51.466;7.260;2023-11-19T08:52:18;5.13;;;1.98;;
75499;SDS011;64076;51.466;7.260;2023-11-19T08:54:44;6.80;;;2.00;;
75499;SDS011;64076;51.466;7.260;2023-11-19T08:57:09;3.70;;;1.87;;
75499;SDS011;64076;51.466;7.260;2023-11-19T08:59:35;7.38;;;2.50;;
75499;SDS011;64076;51.466;7.260;2023-11-19T09:02:02;6.15;;;2.17;;
75499;SDS011;64076;51.466;7.260;2023-11-19T09:04:29;6.80;;;2.00;;
75499;SDS011;64076;51.466;7.260;2023-11-19T09:06:54;5.65;;;1.92;;
75499;SDS011;64076;51.466;7.260;2023-11-19T09:09:20;5.43;;;2.25;;
75499;SDS011;64076;51.466;7.260;2023-11-19T09:11:46;6.83;;;2.30;;
75499;SDS011;64076;51.466;7.260;2023-11-19T09:14:11;6.47;;;2.00;;
75499;SDS011;64076;51.466;7.260;2023-11-19T09:16:37;4.47;;;1.95;;
75499;SDS011;64076;51.466;7.260;2023-11-19T09:19:03;5.20;;;1.80;;
75499;SDS011;64076;51.466;7.260;2023-11-19T09:21:28;5.88;;;2.08;;
75499;SDS011;64076;51.466;7.260;2023-11-19T09:23:59;5.13;;;2.17;;
75499;SDS011;64076;51.466;7.260;2023-11-19T09:26:27;4.97;;;1.98;;
75499;SDS011;64076;51.466;7.260;2023-11-19T09:28:53;8.18;;;2.28;;
75499;SDS011;64076;51.466;7.260;2023-11-19T09:31:18;6.50;;;2.00;;
75499;SDS011;64076;51.466;7.260;2023-11-19T09:33:44;7.07;;;2.47;;
75499;SDS011;64076;51.466;7.260;2023-11-19T09:36:12;6.97;;;2.35;;
75499;SDS011;64076;51.466;7.260;2023-11-19T09:38:41;7.10;;;2.67;;
75499;SDS011;64076;51.466;7.260;2023-11-19T09:41:09;6.38;;;1.98;;
75499;SDS011;64076;51.466;7.260;2023-11-19T09:43:37;6.03;;;2.10;;
75499;SDS011;64076;51.466;7.260;2023-11-19T09:46:04;6.03;;;2.00;;
75499;SDS011;64076;51.466;7.260;2023-11-19T09:48:32;8.98;;;2.30;;
75499;SDS011;64076;51.466;7.260;2023-11-19T09:50:59;5.82;;;2.20;;
75499;SDS011;64076;51.466;7.260;2023-11-19T09:53:26;7.57;;;2.20;;
75499;SDS011;64076;51.466;7.260;2023-11-19T09:55:52;6.40;;;2.63;;
75499;SDS011;64076;51.466;7.260;2023-11-19T09:58:18;7.60;;;2.47;;
75499;SDS011;64076;51.466;7.260;2023-11-19T10:00:44;7.70;;;2.10;;
75499;SDS011;64076;51.466;7.260;2023-11-19T10:03:10;4.30;;;2.30;;
75499;SDS011;64076;51.466;7.260;2023-11-19T10:05:38;6.03;;;2.00;;
75499;SDS011;64076;51.466;7.260;2023-11-19T10:08:04;6.95;;;2.20;;
75499;SDS011;64076;51.466;7.260;2023-11-19T10:10:30;6.07;;;2.17;;
75499;SDS011;64076;51.466;7.260;2023-11-19T10:12:55;6.57;;;2.20;;
75499;SDS011;64076;51.466;7.260;2023-11-19T10:15:22;5.80;;;2.30;;
75499;SDS011;64076;51.466;7.260;2023-11-19T10:17:49;8.25;;;2.03;;
75499;SDS011;64076;51.466;7.260;2023-11-19T10:20:15;6.90;;;2.08;;
75499;SDS011;64076;51.466;7.260;2023-11-19T10:22:41;6.63;;;2.10;;
75499;SDS011;64076;51.466;7.260;2023-11-19T10:25:28;6.47;;;2.10;;
75499;SDS011;64076;51.466;7.260;2023-11-19T10:27:53;5.38;;;2.05;;
75499;SDS011;64076;51.466;7.260;2023-11-19T10:30:24;5.50;;;2.33;;
75499;SDS011;64076;51.466;7.260;2023-11-19T10:33:12;7.50;;;2.38;;
75499;SDS011;64076;51.466;7.260;2023-11-19T10:35:52;6.55;;;1.85;;
75499;SDS011;64076;51.466;7.260;2023-11-19T10:38:19;5.37;;;2.00;;
75499;SDS011;64076;51.466;7.260;2023-11-19T10:40:45;5.07;;;2.03;;
75499;SDS011;64076;51.466;7.260;2023-11-19T10:43:11;7.50;;;2.30;;
75499;SDS011;64076;51.466;7.260;2023-11-19T10:45:37;7.97;;;2.13;;
75499;SDS011;64076;51.466;7.260;2023-11-19T10:48:04;5.38;;;2.22;;
75499;SDS011;64076;51.466;7.260;2023-11-19T10:50:36;6.13;;;2.33;;
75499;SDS011;64076;51.466;7.260;2023-11-19T10:53:03;5.47;;;2.10;;
75499;SDS011;64076;51.466;7.260;2023-11-19T10:55:30;6.30;;;2.00;;
75499;SDS011;64076;51.466;7.260;2023-11-19T10:58:00;7.37;;;2.10;;
75499;SDS011;64076;51.466;7.260;2023-11-19T11:00:38;7.45;;;1.85;;
75499;SDS011;64076;51.466;7.260;2023-11-19T11:03:29;6.50;;;2.70;;
75499;SDS011;64076;51.466;7.260;2023-11-19T11:06:00;5.55;;;2.00;;
75499;SDS011;64076;51.466;7.260;2023-11-19T11:08:29;5.53;;;2.03;;
75499;SDS011;64076;51.466;7.260;2023-11-19T11:10:55;6.97;;;2.30;;
75499;SDS011;64076;51.466;7.260;2023-11-19T11:13:23;6.25;;;2.20;;
75499;SDS011;64076;51.466;7.260;2023-11-19T11:15:50;6.32;;;2.40;;
75499;SDS011;64076;51.466;7.260;2023-11-19T11:18:16;5.40;;;2.15;;
75499;SDS011;64076;51.466;7.260;2023-11-19T11:20:44;6.38;;;2.08;;
75499;SDS011;64076;51.466;7.260;2023-11-19T11:28:53;7.20;;;2.35;;
75499;SDS011;64076;51.466;7.260;2023-11-19T11:34:11;7.30;;;2.00;;
75499;SDS011;64076;51.466;7.260;2023-11-19T11:37:25;7.37;;;2.30;;
75499;SDS011;64076;51.466;7.260;2023-11-19T11:39:45;5.65;;;2.10;;
75499;SDS011;64076;51.466;7.260;2023-11-19T11:50:28;7.83;;;2.40;;
75499;SDS011;64076;51.466;7.260;2023-11-19T11:55:25;7.25;;;2.03;;
75499;SDS011;64076;51.466;7.260;2023-11-19T11:57:52;6.38;;;2.00;;
75499;SDS011;64076;51.466;7.260;2023-11-19T12:00:28;6.77;;;2.13;;
75499;SDS011;64076;51.466;7.260;2023-11-19T12:02:56;6.82;;;2.35;;
75499;SDS011;64076;51.466;7.260;2023-11-19T12:05:23;6.88;;;2.15;;
75499;SDS011;64076;51.466;7.260;2023-11-19T12:07:55;6.47;;;2.10;;
75499;SDS011;64076;51.466;7.260;2023-11-19T12:10:26;6.82;;;2.10;;
75499;SDS011;64076;51.466;7.260;2023-11-19T12:12:58;6.38;;;1.70;;
75499;SDS011;64076;51.466;7.260;2023-11-19T12:15:25;6.00;;;2.10;;
75499;SDS011;64076;51.466;7.260;2023-11-19T12:17:52;6.17;;;2.40;;
75499;SDS011;64076;51.466;7.260;2023-11-19T12:20:23;6.32;;;1.92;;
75499;SDS011;64076;51.466;7.260;2023-11-19T12:22:49;6.75;;;2.15;;
75499;SDS011;64076;51.466;7.260;2023-11-19T12:25:16;5.30;;;2.05;;
75499;SDS011;64076;51.466;7.260;2023-11-19T12:30:11;8.97;;;2.20;;
75499;SDS011;64076;51.466;7.260;2023-11-19T12:32:38;5.93;;;2.15;;
75499;SDS011;64076;51.466;7.260;2023-11-19T12:35:09;7.43;;;2.20;;
75499;SDS011;64076;51.466;7.260;2023-11-19T12:37:40;7.60;;;2.17;;
75499;SDS011;64076;51.466;7.260;2023-11-19T12:40:16;5.47;;;2.20;;
75499;SDS011;64076;51.466;7.260;2023-11-19T12:42:46;6.80;;;2.27;;
75499;SDS011;64076;51.466;7.260;2023-11-19T12:45:13;6.25;;;2.10;;
75499;SDS011;64076;51.466;7.260;2023-11-19T12:47:39;6.13;;;2.20;;
75499;SDS011;64076;51.466;7.260;2023-11-19T12:50:06;7.03;;;2.17;;
75499;SDS011;64076;51.466;7.260;2023-11-19T12:52:33;8.43;;;2.45;;
75499;SDS011;64076;51.466;7.260;2023-11-19T12:54:59;5.83;;;1.80;;
75499;SDS011;64076;51.466;7.260;2023-11-19T13:00:07;6.30;;;2.10;;
75499;SDS011;64076;51.466;7.260;2023-11-19T13:02:46;6.30;;;1.90;;
75499;SDS011;64076;51.466;7.260;2023-11-19T13:08:05;6.18;;;2.00;;
75499;SDS011;64076;51.466;7.260;2023-11-19T13:10:34;7.28;;;2.00;;
75499;SDS011;64076;51.466;7.260;2023-11-19T13:13:15;7.78;;;2.05;;
75499;SDS011;64076;51.466;7.260;2023-11-19T13:15:40;6.67;;;1.90;;
75499;SDS011;64076;51.466;7.260;2023-11-19T13:18:06;5.85;;;2.13;;
75499;SDS011;64076;51.466;7.260;2023-11-19T13:20:32;7.10;;;2.10;;
75499;SDS011;64076;51.466;7.260;2023-11-19T13:22:59;7.43;;;2.17;;
75499;SDS011;64076;51.466;7.260;2023-11-19T13:25:26;6.15;;;2.10;;
75499;SDS011;64076;51.466;7.260;2023-11-19T13:27:52;8.40;;;2.00;;
75499;SDS011;64076;51.466;7.260;2023-11-19T13:30:18;5.72;;;1.92;;
75499;SDS011;64076;51.466;7.260;2023-11-19T13:32:44;6.50;;;2.03;;
75499;SDS011;64076;51.466;7.260;2023-11-19T13:35:11;5.72;;;1.95;;
75499;SDS011;64076;51.466;7.260;2023-11-19T13:37:37;5.70;;;1.93;;
75499;SDS011;64076;51.466;7.260;2023-11-19T13:40:04;6.80;;;1.92;;
75499;SDS011;64076;51.466;7.260;2023-11-19T13:42:30;6.88;;;2.13;;
75499;SDS011;64076;51.466;7.260;2023-11-19T13:44:55;6.20;;;1.70;;
75499;SDS011;64076;51.466;7.260;2023-11-19T13:47:23;5.70;;;2.00;;
75499;SDS011;64076;51.466;7.260;2023-11-19T13:49:49;5.85;;;1.88;;
75499;SDS011;64076;51.466;7.260;2023-11-19T13:52:15;6.40;;;1.80;;
75499;SDS011;64076;51.466;7.260;2023-11-19T13:54:40;5.57;;;1.80;;
75499;SDS011;64076;51.466;7.260;2023-11-19T13:57:06;5.87;;;2.10;;
75499;SDS011;64076;51.466;7.260;2023-11-19T13:59:32;6.33;;;1.83;;
75499;SDS011;64076;51.466;7.260;2023-11-19T14:01:57;6.13;;;2.03;;
75499;SDS011;64076;51.466;7.260;2023-11-19T14:04:26;5.82;;;1.98;;
75499;SDS011;64076;51.466;7.260;2023-11-19T14:06:51;5.87;;;1.83;;
75499;SDS011;64076;51.466;7.260;2023-11-19T14:09:17;6.33;;;2.10;;
75499;SDS011;64076;51.466;7.260;2023-11-19T14:11:43;7.18;;;1.88;;
75499;SDS011;64076;51.466;7.260;2023-11-19T14:14:11;6.40;;;1.90;;
75499;SDS011;64076;51.466;7.260;2023-11-19T14:16:37;7.87;;;2.23;;
75499;SDS011;64076;51.466;7.260;2023-11-19T14:19:02;5.50;;;2.20;;
75499;SDS011;64076;51.466;7.260;2023-11-19T14:21:28;4.73;;;1.90;;
75499;SDS011;64076;51.466;7.260;2023-11-19T14:23:53;5.43;;;2.03;;
75499;SDS011;64076;51.466;7.260;2023-11-19T14:26:19;5.73;;;1.90;;
75499;SDS011;64076;51.466;7.260;2023-11-19T14:28:45;5.77;;;1.87;;
75499;SDS011;64076;51.466;7.260;2023-11-19T14:31:10;7.32;;;2.00;;
75499;SDS011;64076;51.466;7.260;2023-11-19T14:33:36;6.63;;;2.37;;
75499;SDS011;64076;51.466;7.260;2023-11-19T14:36:03;6.10;;;2.28;;
75499;SDS011;64076;51.466;7.260;2023-11-19T14:38:29;6.40;;;1.70;;
75499;SDS011;64076;51.466;7.260;2023-11-19T14:40:55;5.78;;;1.95;;
75499;SDS011;64076;51.466;7.260;2023-11-19T14:43:21;6.85;;;2.20;;
75499;SDS011;64076;51.466;7.260;2023-11-19T14:45:46;6.03;;;1.93;;
75499;SDS011;64076;51.466;7.260;2023-11-19T14:48:12;5.10;;;1.83;;
75499;SDS011;64076;51.466;7.260;2023-11-19T14:50:38;6.10;;;2.20;;
75499;SDS011;64076;51.466;7.260;2023-11-19T14:53:03;8.43;;;2.10;;
75499;SDS011;64076;51.466;7.260;2023-11-19T14:55:29;6.38;;;2.10;;
75499;SDS011;64076;51.466;7.260;2023-11-19T14:57:54;5.30;;;2.10;;
75499;SDS011;64076;51.466;7.260;2023-11-19T15:00:21;5.93;;;2.20;;
75499;SDS011;64076;51.466;7.260;2023-11-19T15:02:47;6.43;;;2.20;;
75499;SDS011;64076;51.466;7.260;2023-11-19T15:05:12;5.90;;;2.03;;
75499;SDS011;64076;51.466;7.260;2023-11-19T15:07:38;5.18;;;1.90;;
75499;SDS011;64076;51.466;7.260;2023-11-19T15:10:05;5.03;;;1.52;;
75499;SDS011;64076;51.466;7.260;2023-11-19T15:12:36;7.83;;;2.30;;
75499;SDS011;64076;51.466;7.260;2023-11-19T15:15:04;6.38;;;1.77;;